sensor_id;sensor_type;location;lat;lon;timestamp;pressure;altitude;pressure_sealevel;temperature;humidity
22580;BME280;11456;47.030;15.396;2023-02-14T00:01:49;99396.97;;;-0.84;92.22
22580;BME280;11456;47.030;15.396;2023-02-14T00:04:16;99396.09;;;-0.85;92.00
22580;BME280;11456;47.030;15.396;2023-02-14T00:06:43;99395.75;;;-0.72;91.84
22580;BME280;11456;47.030;15.396;2023-02-14T00:09:11;99387.84;;;-1.08;92.10
22580;BME280;11456;47.030;15.396;2023-02-14T00:11:38;99403.53;;;-1.36;93.37
22580;BME280;11456;47.030;15.396;2023-02-14T00:14:05;99404.91;;;-1.21;94.05
22580;BME280;11456;47.030;15.396;2023-02-14T00:16:50;99416.41;;;-1.22;94.36
22580;BME280;11456;47.030;15.396;2023-02-14T00:19:16;99416.44;;;-0.88;93.86
22580;BME280;11456;47.030;15.396;2023-02-14T00:21:43;99417.63;;;-1.00;92.56
22580;BME280;11456;47.030;15.396;2023-02-14T00:24:11;99420.97;;;-0.93;92.37
22580;BME280;11456;47.030;15.396;2023-02-14T00:26:38;99418.25;;;-1.26;93.89
22580;BME280;11456;47.030;15.396;2023-02-14T00:29:07;99412.41;;;-1.40;96.95
22580;BME280;11456;47.030;15.396;2023-02-14T00:31:34;99409.25;;;-0.83;96.89
22580;BME280;11456;47.030;15.396;2023-02-14T00:34:02;99399.66;;;-0.53;97.15
22580;BME280;11456;47.030;15.396;2023-02-14T00:36:29;99405.69;;;-0.48;95.49
22580;BME280;11456;47.030;15.396;2023-02-14T00:38:56;99411.53;;;-0.69;94.76
22580;BME280;11456;47.030;15.396;2023-02-14T00:41:22;99409.25;;;-0.83;94.32
22580;BME280;11456;47.030;15.396;2023-02-14T00:43:52;99392.78;;;-0.94;94.05
22580;BME280;11456;47.030;15.396;2023-02-14T00:46:20;99390.25;;;-0.97;93.60
22580;BME280;11456;47.030;15.396;2023-02-14T00:48:46;99391.25;;;-1.03;93.76
22580;BME280;11456;47.030;15.396;2023-02-14T00:51:13;99397.38;;;-1.01;93.94
22580;BME280;11456;47.030;15.396;2023-02-14T00:53:40;99398.88;;;-0.91;94.73
22580;BME280;11456;47.030;15.396;2023-02-14T00:56:07;99394.66;;;-0.98;94.63
22580;BME280;11456;47.030;15.396;2023-02-14T00:58:34;99413.84;;;-0.90;93.80
22580;BME280;11456;47.030;15.396;2023-02-14T01:01:00;99415.16;;;-1.07;93.05
22580;BME280;11456;47.030;15.396;2023-02-14T01:03:27;99399.84;;;-0.95;93.83
22580;BME280;11456;47.030;15.396;2023-02-14T01:05:55;99411.75;;;-1.12;93.80
22580;BME280;11456;47.030;15.396;2023-02-14T01:08:22;99404.97;;;-1.23;94.25
22580;BME280;11456;47.030;15.396;2023-02-14T01:10:48;99399.38;;;-1.10;93.81
22580;BME280;11456;47.030;15.396;2023-02-14T01:13:15;99411.28;;;-1.28;94.95
22580;BME280;11456;47.030;15.396;2023-02-14T01:15:43;99416.19;;;-1.13;94.72
22580;BME280;11456;47.030;15.396;2023-02-14T01:18:10;99410.97;;;-1.16;93.90
22580;BME280;11456;47.030;15.396;2023-02-14T01:20:36;99405.69;;;-1.16;93.90
22580;BME280;11456;47.030;15.396;2023-02-14T01:23:03;99393.44;;;-1.20;93.72
22580;BME280;11456;47.030;15.396;2023-02-14T01:25:29;99400.25;;;-1.10;93.48
22580;BME280;11456;47.030;15.396;2023-02-14T01:27:57;99399.38;;;-1.10;92.76
22580;BME280;11456;47.030;15.396;2023-02-14T01:30:24;99393.94;;;-1.04;93.79
22580;BME280;11456;47.030;15.396;2023-02-14T01:32:51;99403.50;;;-0.99;93.70
22580;BME280;11456;47.030;15.396;2023-02-14T01:35:17;99396.97;;;-0.84;93.27
22580;BME280;11456;47.030;15.396;2023-02-14T01:37:44;99396.78;;;-0.78;93.25
22580;BME280;11456;47.030;15.396;2023-02-14T01:40:10;99392.97;;;-1.02;92.79
22580;BME280;11456;47.030;15.396;2023-02-14T01:42:37;99405.91;;;-1.25;92.37
22580;BME280;11456;47.030;15.396;2023-02-14T01:45:06;99403.06;;;-1.17;92.84
22580;BME280;11456;47.030;15.396;2023-02-14T01:47:36;99386.41;;;-1.21;92.95
22580;BME280;11456;47.030;15.396;2023-02-14T01:50:08;99392.69;;;-1.25;94.09
22580;BME280;11456;47.030;15.396;2023-02-14T01:52:36;99384.44;;;-1.13;93.65
22580;BME280;11456;47.030;15.396;2023-02-14T01:55:09;99386.19;;;-1.47;92.96
22580;BME280;11456;47.030;15.396;2023-02-14T01:57:52;99380.13;;;-1.52;93.47
22580;BME280;11456;47.030;15.396;2023-02-14T02:00:20;99383.56;;;-1.47;93.68
22580;BME280;11456;47.030;15.396;2023-02-14T02:03:05;99383.25;;;-1.35;93.86
22580;BME280;11456;47.030;15.396;2023-02-14T02:05:35;99374.47;;;-1.37;92.38
22580;BME280;11456;47.030;15.396;2023-02-14T02:08:03;99387.22;;;-1.54;93.13
22580;BME280;11456;47.030;15.396;2023-02-14T02:10:29;99375.94;;;-1.24;93.55
22580;BME280;11456;47.030;15.396;2023-02-14T02:12:56;99376.56;;;-1.50;93.88
22580;BME280;11456;47.030;15.396;2023-02-14T02:15:25;99382.69;;;-1.48;93.81
22580;BME280;11456;47.030;15.396;2023-02-14T02:18:01;99382.47;;;-1.40;93.87
22580;BME280;11456;47.030;15.396;2023-02-14T02:40:55;99385.78;;;-1.68;92.88
22580;BME280;11456;47.030;15.396;2023-02-14T02:43:29;99382.09;;;-1.60;92.44
22580;BME280;11456;47.030;15.396;2023-02-14T02:51:47;99384.09;;;-1.72;92.64
22580;BME280;11456;47.030;15.396;2023-02-14T02:54:43;99383.94;;;-1.66;93.59
22580;BME280;11456;47.030;15.396;2023-02-14T02:57:13;99382.16;;;-1.64;93.55
22580;BME280;11456;47.030;15.396;2023-02-14T02:59:43;99380.25;;;-1.58;93.40
22580;BME280;11456;47.030;15.396;2023-02-14T03:02:13;99377.00;;;-1.70;93.89
22580;BME280;11456;47.030;15.396;2023-02-14T03:04:42;99376.09;;;-1.69;92.41
22580;BME280;11456;47.030;15.396;2023-02-14T03:12:45;99386.25;;;-1.50;94.31
22580;BME280;11456;47.030;15.396;2023-02-14T03:15:31;99389.22;;;-1.66;94.09
22580;BME280;11456;47.030;15.396;2023-02-14T03:23:22;99388.63;;;-1.78;93.67
22580;BME280;11456;47.030;15.396;2023-02-14T03:26:12;99379.22;;;-1.90;93.50
22580;BME280;11456;47.030;15.396;2023-02-14T03:28:45;99380.97;;;-1.89;93.30
22580;BME280;11456;47.030;15.396;2023-02-14T03:31:22;99384.59;;;-1.93;93.39
22580;BME280;11456;47.030;15.396;2023-02-14T03:33:57;99384.84;;;-2.05;93.17
22580;BME280;11456;47.030;15.396;2023-02-14T03:36:30;99386.38;;;-1.95;94.22
22580;BME280;11456;47.030;15.396;2023-02-14T03:41:25;99395.19;;;-1.96;93.58
22580;BME280;11456;47.030;15.396;2023-02-14T03:43:55;99396.84;;;-1.92;93.16
22580;BME280;11456;47.030;15.396;2023-02-14T03:46:25;99385.25;;;-1.85;93.50
22580;BME280;11456;47.030;15.396;2023-02-14T03:48:54;99383.09;;;-2.06;92.45
22580;BME280;11456;47.030;15.396;2023-02-14T03:51:22;99388.38;;;-2.06;92.33
22580;BME280;11456;47.030;15.396;2023-02-14T03:53:50;99387.66;;;-2.14;92.96
22580;BME280;11456;47.030;15.396;2023-02-14T03:56:25;99393.84;;;-2.15;93.08
22580;BME280;11456;47.030;15.396;2023-02-14T03:58:55;99373.50;;;-2.10;92.42
22580;BME280;11456;47.030;15.396;2023-02-14T04:01:24;99379.66;;;-2.11;92.50
22580;BME280;11456;47.030;15.396;2023-02-14T04:03:54;99381.50;;;-2.13;92.86
22580;BME280;11456;47.030;15.396;2023-02-14T04:06:22;99378.09;;;-2.18;92.87
22580;BME280;11456;47.030;15.396;2023-02-14T04:08:48;99376.53;;;-2.28;92.51
22580;BME280;11456;47.030;15.396;2023-02-14T04:11:15;99371.31;;;-2.31;93.28
22580;BME280;11456;47.030;15.396;2023-02-14T04:13:41;99377.25;;;-2.20;93.62
22580;BME280;11456;47.030;15.396;2023-02-14T04:16:08;99367.59;;;-2.23;92.34
22580;BME280;11456;47.030;15.396;2023-02-14T04:18:34;99365.72;;;-2.16;92.96
22580;BME280;11456;47.030;15.396;2023-02-14T04:21:19;99362.47;;;-2.30;93.17
22580;BME280;11456;47.030;15.396;2023-02-14T04:23:46;99356.88;;;-2.15;92.57
22580;BME280;11456;47.030;15.396;2023-02-14T04:26:12;99355.63;;;-2.37;92.68
22580;BME280;11456;47.030;15.396;2023-02-14T04:28:39;99354.66;;;-2.35;92.68
22580;BME280;11456;47.030;15.396;2023-02-14T04:31:05;99348.38;;;-2.29;93.04
22580;BME280;11456;47.030;15.396;2023-02-14T04:33:32;99349.22;;;-2.27;92.61
22580;BME280;11456;47.030;15.396;2023-02-14T04:35:59;99344.47;;;-2.10;92.73
22580;BME280;11456;47.030;15.396;2023-02-14T04:38:26;99351.16;;;-1.94;92.20
22580;BME280;11456;47.030;15.396;2023-02-14T04:40:52;99341.16;;;-1.80;92.05
22580;BME280;11456;47.030;15.396;2023-02-14T04:43:19;99338.22;;;-1.68;91.12
22580;BME280;11456;47.030;15.396;2023-02-14T04:45:45;99335.63;;;-2.09;91.54
22580;BME280;11456;47.030;15.396;2023-02-14T04:48:12;99346.34;;;-2.15;91.20
22580;BME280;11456;47.030;15.396;2023-02-14T04:50:39;99338.66;;;-2.26;91.58
22580;BME280;11456;47.030;15.396;2023-02-14T04:53:05;99339.66;;;-2.31;91.23
22580;BME280;11456;47.030;15.396;2023-02-14T04:55:32;99324.47;;;-1.82;90.49
22580;BME280;11456;47.030;15.396;2023-02-14T04:57:58;99342.78;;;-2.13;91.79
22580;BME280;11456;47.030;15.396;2023-02-14T05:00:25;99341.13;;;-2.18;91.16
22580;BME280;11456;47.030;15.396;2023-02-14T05:02:51;99335.88;;;-2.18;92.04
22580;BME280;11456;47.030;15.396;2023-02-14T05:05:18;99327.28;;;-2.29;92.11
22580;BME280;11456;47.030;15.396;2023-02-14T05:07:44;99334.13;;;-2.19;92.25
22580;BME280;11456;47.030;15.396;2023-02-14T05:10:13;99337.09;;;-2.36;92.87
22580;BME280;11456;47.030;15.396;2023-02-14T05:12:40;99333.06;;;-2.54;93.92
22580;BME280;11456;47.030;15.396;2023-02-14T05:15:06;99337.50;;;-2.56;93.38
22580;BME280;11456;47.030;15.396;2023-02-14T05:17:33;99336.06;;;-2.70;93.80
22580;BME280;11456;47.030;15.396;2023-02-14T05:19:59;99328.13;;;-2.69;93.09
22580;BME280;11456;47.030;15.396;2023-02-14T05:22:26;99319.47;;;-2.77;93.92
22580;BME280;11456;47.030;15.396;2023-02-14T05:24:52;99317.50;;;-2.66;93.73
22580;BME280;11456;47.030;15.396;2023-02-14T05:27:19;99312.72;;;-2.47;93.30
22580;BME280;11456;47.030;15.396;2023-02-14T05:29:45;99305.78;;;-2.51;92.67
22580;BME280;11456;47.030;15.396;2023-02-14T05:32:12;99310.31;;;-2.58;93.28
22580;BME280;11456;47.030;15.396;2023-02-14T05:34:38;99306.53;;;-2.46;93.30
22580;BME280;11456;47.030;15.396;2023-02-14T05:37:05;99309.97;;;-2.43;92.57
22580;BME280;11456;47.030;15.396;2023-02-14T05:39:31;99301.25;;;-2.45;92.12
22580;BME280;11456;47.030;15.396;2023-02-14T05:41:58;99302.91;;;-2.40;91.94
22580;BME280;11456;47.030;15.396;2023-02-14T05:44:24;99301.84;;;-2.32;92.16
22580;BME280;11456;47.030;15.396;2023-02-14T05:46:51;99304.00;;;-2.51;91.60
22580;BME280;11456;47.030;15.396;2023-02-14T05:49:17;99294.13;;;-2.41;92.33
22580;BME280;11456;47.030;15.396;2023-02-14T05:51:44;99285.53;;;-2.51;92.03
22580;BME280;11456;47.030;15.396;2023-02-14T05:54:10;99300.97;;;-2.32;92.52
22580;BME280;11456;47.030;15.396;2023-02-14T05:56:37;99304.38;;;-2.27;92.20
22580;BME280;11456;47.030;15.396;2023-02-14T05:59:03;99308.00;;;-2.31;92.53
22580;BME280;11456;47.030;15.396;2023-02-14T06:01:30;99310.53;;;-2.28;93.96
22580;BME280;11456;47.030;15.396;2023-02-14T06:03:57;99306.72;;;-2.14;93.96
22580;BME280;11456;47.030;15.396;2023-02-14T06:06:23;99310.44;;;-2.24;93.81
22580;BME280;11456;47.030;15.396;2023-02-14T06:08:50;99312.03;;;-2.57;92.86
22580;BME280;11456;47.030;15.396;2023-02-14T06:11:16;99312.09;;;-2.60;93.34
22580;BME280;11456;47.030;15.396;2023-02-14T06:13:43;99311.91;;;-2.51;92.99
22580;BME280;11456;47.030;15.396;2023-02-14T06:16:09;99310.31;;;-2.58;93.99
22580;BME280;11456;47.030;15.396;2023-02-14T06:18:36;99313.88;;;-2.19;94.05
22580;BME280;11456;47.030;15.396;2023-02-14T06:21:02;99310.50;;;-1.87;93.22
22580;BME280;11456;47.030;15.396;2023-02-14T06:23:29;99313.44;;;-1.99;91.20
22580;BME280;11456;47.030;15.396;2023-02-14T06:25:55;99307.66;;;-1.42;90.78
22580;BME280;11456;47.030;15.396;2023-02-14T06:28:22;99312.47;;;-1.59;89.22
22580;BME280;11456;47.030;15.396;2023-02-14T06:30:48;99314.28;;;-1.26;89.01
22580;BME280;11456;47.030;15.396;2023-02-14T06:33:15;99308.84;;;-1.20;87.95
22580;BME280;11456;47.030;15.396;2023-02-14T06:35:41;99312.94;;;-1.08;88.18
22580;BME280;11456;47.030;15.396;2023-02-14T06:38:08;99319.78;;;-0.67;89.50
22580;BME280;11456;47.030;15.396;2023-02-14T06:40:34;99321.50;;;-0.66;86.13
22580;BME280;11456;47.030;15.396;2023-02-14T06:43:01;99316.00;;;-0.90;88.33
22580;BME280;11456;47.030;15.396;2023-02-14T06:45:27;99311.66;;;-0.94;90.40
22580;BME280;11456;47.030;15.396;2023-02-14T06:47:54;99319.97;;;-1.07;90.84
22580;BME280;11456;47.030;15.396;2023-02-14T06:50:20;99315.06;;;-0.89;91.03
22580;BME280;11456;47.030;15.396;2023-02-14T06:52:47;99308.19;;;-0.96;91.58
22580;BME280;11456;47.030;15.396;2023-02-14T06:55:14;99314.56;;;-0.70;92.49
22580;BME280;11456;47.030;15.396;2023-02-14T06:57:40;99309.69;;;-0.24;92.38
22580;BME280;11456;47.030;15.396;2023-02-14T07:00:07;99312.22;;;0.09;90.62
22580;BME280;11456;47.030;15.396;2023-02-14T07:02:34;99303.94;;;0.47;89.84
22580;BME280;11456;47.030;15.396;2023-02-14T07:05:00;99306.97;;;0.63;89.26
22580;BME280;11456;47.030;15.396;2023-02-14T07:07:27;99310.50;;;0.63;90.35
22580;BME280;11456;47.030;15.396;2023-02-14T07:09:53;99306.47;;;1.03;89.21
22580;BME280;11456;47.030;15.396;2023-02-14T07:12:20;99305.88;;;1.19;89.57
22580;BME280;11456;47.030;15.396;2023-02-14T07:14:46;99301.72;;;1.37;88.63
22580;BME280;11456;47.030;15.396;2023-02-14T07:17:12;99303.59;;;1.82;88.76
22580;BME280;11456;47.030;15.396;2023-02-14T07:19:39;99303.22;;;2.14;86.90
22580;BME280;11456;47.030;15.396;2023-02-14T07:22:05;99299.63;;;2.37;85.12
22580;BME280;11456;47.030;15.396;2023-02-14T07:24:32;99301.72;;;3.14;83.02
22580;BME280;11456;47.030;15.396;2023-02-14T07:26:59;99290.22;;;3.53;81.42
22580;BME280;11456;47.030;15.396;2023-02-14T07:29:25;99285.84;;;4.10;77.87
22580;BME280;11456;47.030;15.396;2023-02-14T07:31:51;99283.66;;;4.72;75.00
22580;BME280;11456;47.030;15.396;2023-02-14T07:34:18;99274.31;;;3.90;75.64
22580;BME280;11456;47.030;15.396;2023-02-14T07:36:45;99274.59;;;4.22;76.88
22580;BME280;11456;47.030;15.396;2023-02-14T07:39:12;99273.75;;;4.74;73.05
22580;BME280;11456;47.030;15.396;2023-02-14T07:41:38;99275.34;;;4.78;72.66
22580;BME280;11456;47.030;15.396;2023-02-14T07:44:08;99275.91;;;5.70;70.94
22580;BME280;11456;47.030;15.396;2023-02-14T07:46:35;99260.66;;;6.20;67.91
22580;BME280;11456;47.030;15.396;2023-02-14T07:49:01;99268.25;;;6.43;67.16
22580;BME280;11456;47.030;15.396;2023-02-14T07:51:28;99262.44;;;4.87;71.39
22580;BME280;11456;47.030;15.396;2023-02-14T07:53:54;99258.72;;;5.91;69.59
22580;BME280;11456;47.030;15.396;2023-02-14T07:56:21;99271.06;;;6.40;68.33
22580;BME280;11456;47.030;15.396;2023-02-14T07:58:47;99266.66;;;6.71;64.49
22580;BME280;11456;47.030;15.396;2023-02-14T08:01:15;99263.75;;;7.19;63.62
22580;BME280;11456;47.030;15.396;2023-02-14T08:03:42;99264.88;;;8.02;60.91
22580;BME280;11456;47.030;15.396;2023-02-14T08:06:15;99265.25;;;8.10;57.88
22580;BME280;11456;47.030;15.396;2023-02-14T08:08:41;99253.88;;;7.64;59.31
22580;BME280;11456;47.030;15.396;2023-02-14T08:11:08;99258.78;;;7.13;61.88
22580;BME280;11456;47.030;15.396;2023-02-14T08:13:34;99263.25;;;7.71;60.58
22580;BME280;11456;47.030;15.396;2023-02-14T08:16:01;99263.75;;;7.19;60.06
22580;BME280;11456;47.030;15.396;2023-02-14T08:18:31;99270.34;;;7.86;59.02
22580;BME280;11456;47.030;15.396;2023-02-14T08:20:59;99261.53;;;7.70;59.20
22580;BME280;11456;47.030;15.396;2023-02-14T08:23:26;99253.16;;;6.72;61.49
22580;BME280;11456;47.030;15.396;2023-02-14T08:25:52;99252.06;;;8.48;57.93
22580;BME280;11456;47.030;15.396;2023-02-14T08:28:19;99252.47;;;8.28;58.17
22580;BME280;11456;47.030;15.396;2023-02-14T08:30:49;99260.56;;;7.71;58.30
22580;BME280;11456;47.030;15.396;2023-02-14T08:33:16;99260.78;;;7.68;58.99
22580;BME280;11456;47.030;15.396;2023-02-14T08:35:42;99260.78;;;7.68;58.76
22580;BME280;11456;47.030;15.396;2023-02-14T08:38:09;99266.03;;;7.11;60.61
22580;BME280;11456;47.030;15.396;2023-02-14T08:40:39;99272.91;;;6.56;61.91
22580;BME280;11456;47.030;15.396;2023-02-14T08:43:06;99266.50;;;6.42;61.84
22580;BME280;11456;47.030;15.396;2023-02-14T08:45:33;99276.59;;;6.53;64.70
22580;BME280;11456;47.030;15.396;2023-02-14T08:48:04;99274.25;;;7.52;61.10
22580;BME280;11456;47.030;15.396;2023-02-14T08:50:30;99272.63;;;8.06;57.82
22580;BME280;11456;47.030;15.396;2023-02-14T08:52:57;99275.69;;;7.58;59.04
22580;BME280;11456;47.030;15.396;2023-02-14T08:55:24;99271.88;;;7.90;58.50
22580;BME280;11456;47.030;15.396;2023-02-14T08:57:53;99268.97;;;7.51;58.88
22580;BME280;11456;47.030;15.396;2023-02-14T09:00:20;99278.09;;;7.18;59.46
22580;BME280;11456;47.030;15.396;2023-02-14T09:02:49;99282.09;;;7.11;59.75
22580;BME280;11456;47.030;15.396;2023-02-14T09:05:15;99286.00;;;7.36;59.98
22580;BME280;11456;47.030;15.396;2023-02-14T09:07:42;99278.69;;;8.10;57.88
22580;BME280;11456;47.030;15.396;2023-02-14T09:10:09;99277.63;;;8.13;57.99
22580;BME280;11456;47.030;15.396;2023-02-14T09:12:37;99278.78;;;8.91;55.49
22580;BME280;11456;47.030;15.396;2023-02-14T09:15:04;99287.97;;;8.19;57.55
22580;BME280;11456;47.030;15.396;2023-02-14T09:17:31;99273.88;;;8.43;58.58
22580;BME280;11456;47.030;15.396;2023-02-14T09:19:57;99283.41;;;8.62;57.43
22580;BME280;11456;47.030;15.396;2023-02-14T09:22:24;99283.38;;;8.35;56.52
22580;BME280;11456;47.030;15.396;2023-02-14T09:24:50;99283.16;;;7.53;58.90
22580;BME280;11456;47.030;15.396;2023-02-14T09:27:17;99284.91;;;8.93;57.75
22580;BME280;11456;47.030;15.396;2023-02-14T09:29:43;99284.19;;;8.64;55.07
22580;BME280;11456;47.030;15.396;2023-02-14T09:32:10;99280.03;;;9.12;55.62
22580;BME280;11456;47.030;15.396;2023-02-14T09:34:36;99287.81;;;9.42;54.82
22580;BME280;11456;47.030;15.396;2023-02-14T09:37:03;99280.09;;;10.13;52.39
22580;BME280;11456;47.030;15.396;2023-02-14T09:39:48;99279.72;;;9.29;54.14
22580;BME280;11456;47.030;15.396;2023-02-14T09:44:54;99282.19;;;10.46;50.67
22580;BME280;11456;47.030;15.396;2023-02-14T09:50:09;99270.34;;;11.66;49.43
22580;BME280;11456;47.030;15.396;2023-02-14T09:52:39;99270.59;;;11.63;47.99
22580;BME280;11456;47.030;15.396;2023-02-14T09:55:05;99269.69;;;12.20;48.57
22580;BME280;11456;47.030;15.396;2023-02-14T09:57:43;99270.59;;;11.52;48.33
22580;BME280;11456;47.030;15.396;2023-02-14T10:00:55;99269.38;;;10.97;50.04
22580;BME280;11456;47.030;15.396;2023-02-14T10:03:11;99266.28;;;10.91;50.97
22580;BME280;11456;47.030;15.396;2023-02-14T10:05:43;99266.28;;;11.60;49.09
22580;BME280;11456;47.030;15.396;2023-02-14T10:11:04;99269.31;;;10.13;52.31
22580;BME280;11456;47.030;15.396;2023-02-14T10:13:34;99274.56;;;10.40;52.71
22580;BME280;11456;47.030;15.396;2023-02-14T10:18:59;99275.38;;;11.13;50.00
22580;BME280;11456;47.030;15.396;2023-02-14T10:21:30;99262.31;;;11.77;47.87
22580;BME280;11456;47.030;15.396;2023-02-14T10:24:46;99260.50;;;11.54;48.65
22580;BME280;11456;47.030;15.396;2023-02-14T10:26:45;99263.75;;;10.76;50.65
22580;BME280;11456;47.030;15.396;2023-02-14T10:29:14;99264.81;;;11.21;49.65
22580;BME280;11456;47.030;15.396;2023-02-14T10:31:49;99267.25;;;11.48;48.23
22580;BME280;11456;47.030;15.396;2023-02-14T10:54:21;99235.78;;;11.71;49.23
22580;BME280;11456;47.030;15.396;2023-02-14T10:59:19;99226.22;;;11.78;48.69
22580;BME280;11456;47.030;15.396;2023-02-14T11:01:47;99228.44;;;11.84;48.36
22580;BME280;11456;47.030;15.396;2023-02-14T11:04:15;99221.00;;;11.53;51.17
22580;BME280;11456;47.030;15.396;2023-02-14T11:06:42;99226.22;;;12.23;48.52
22580;BME280;11456;47.030;15.396;2023-02-14T11:09:09;99224.25;;;12.47;47.58
22580;BME280;11456;47.030;15.396;2023-02-14T11:11:53;99218.81;;;12.58;47.65
22580;BME280;11456;47.030;15.396;2023-02-14T11:16:51;99211.88;;;13.71;44.78
22580;BME280;11456;47.030;15.396;2023-02-14T11:19:22;99207.41;;;13.07;45.26
22580;BME280;11456;47.030;15.396;2023-02-14T11:21:50;99207.66;;;12.40;46.85
22580;BME280;11456;47.030;15.396;2023-02-14T11:26:44;99200.56;;;13.03;45.69
22580;BME280;11456;47.030;15.396;2023-02-14T11:29:12;99205.47;;;13.09;45.57
22580;BME280;11456;47.030;15.396;2023-02-14T11:31:39;99194.19;;;13.25;45.09
22580;BME280;11456;47.030;15.396;2023-02-14T11:34:23;99198.09;;;13.83;43.95
22580;BME280;11456;47.030;15.396;2023-02-14T11:36:51;99195.38;;;13.74;44.75
22580;BME280;11456;47.030;15.396;2023-02-14T11:39:29;99202.00;;;14.30;42.78
22580;BME280;11456;47.030;15.396;2023-02-14T11:41:57;99196.88;;;13.87;43.99
22580;BME280;11456;47.030;15.396;2023-02-14T11:44:25;99193.16;;;13.37;45.42
22580;BME280;11456;47.030;15.396;2023-02-14T11:46:54;99184.63;;;13.93;43.94
22580;BME280;11456;47.030;15.396;2023-02-14T11:49:25;99197.97;;;14.15;43.10
22580;BME280;11456;47.030;15.396;2023-02-14T11:51:53;99193.03;;;13.18;44.75
22580;BME280;11456;47.030;15.396;2023-02-14T11:56:54;99185.44;;;13.01;45.20
22580;BME280;11456;47.030;15.396;2023-02-14T11:59:41;99171.88;;;13.53;44.94
22580;BME280;11456;47.030;15.396;2023-02-14T12:04:57;99175.44;;;13.75;44.33
22580;BME280;11456;47.030;15.396;2023-02-14T12:07:32;99173.44;;;14.57;42.31
22580;BME280;11456;47.030;15.396;2023-02-14T12:10:07;99169.44;;;14.61;41.66
22580;BME280;11456;47.030;15.396;2023-02-14T12:12:34;99164.28;;;14.38;42.10
22580;BME280;11456;47.030;15.396;2023-02-14T12:15:21;99165.47;;;13.85;43.46
22580;BME280;11456;47.030;15.396;2023-02-14T12:17:55;99161.88;;;13.75;43.92
22580;BME280;11456;47.030;15.396;2023-02-14T12:20:34;99167.47;;;14.13;43.99
22580;BME280;11456;47.030;15.396;2023-02-14T12:23:17;99169.47;;;13.81;43.68
22580;BME280;11456;47.030;15.396;2023-02-14T12:25:50;99166.53;;;14.03;43.62
22580;BME280;11456;47.030;15.396;2023-02-14T12:28:27;99163.50;;;13.87;43.62
22580;BME280;11456;47.030;15.396;2023-02-14T12:30:56;99155.81;;;13.82;43.58
22580;BME280;11456;47.030;15.396;2023-02-14T12:33:24;99149.75;;;13.18;44.27
22580;BME280;11456;47.030;15.396;2023-02-14T12:41:36;99142.59;;;14.38;41.65
22580;BME280;11456;47.030;15.396;2023-02-14T12:49:31;99130.53;;;13.21;44.40
22580;BME280;11456;47.030;15.396;2023-02-14T13:07:37;99117.72;;;14.33;42.54
22580;BME280;11456;47.030;15.396;2023-02-14T13:12:52;99117.44;;;14.36;41.42
22580;BME280;11456;47.030;15.396;2023-02-14T13:20:40;99107.00;;;15.18;39.83
22580;BME280;11456;47.030;15.396;2023-02-14T13:23:13;99098.63;;;15.02;40.88
22580;BME280;11456;47.030;15.396;2023-02-14T13:25:42;99108.16;;;16.27;37.60
22580;BME280;11456;47.030;15.396;2023-02-14T13:28:15;99099.56;;;15.77;38.99
22580;BME280;11456;47.030;15.396;2023-02-14T13:30:42;99098.78;;;15.57;38.17
22580;BME280;11456;47.030;15.396;2023-02-14T13:33:26;99095.59;;;15.71;38.58
22580;BME280;11456;47.030;15.396;2023-02-14T13:35:54;99088.88;;;15.19;39.39
22580;BME280;11456;47.030;15.396;2023-02-14T13:38:22;99090.56;;;15.30;39.37
22580;BME280;11456;47.030;15.396;2023-02-14T13:40:49;99092.50;;;15.47;38.94
22580;BME280;11456;47.030;15.396;2023-02-14T13:46:01;99099.63;;;14.72;40.08
22580;BME280;11456;47.030;15.396;2023-02-14T13:48:28;99083.50;;;14.90;39.01
22580;BME280;11456;47.030;15.396;2023-02-14T13:51:04;99094.19;;;15.01;39.28
22580;BME280;11456;47.030;15.396;2023-02-14T13:53:36;99090.50;;;15.49;38.99
22580;BME280;11456;47.030;15.396;2023-02-14T14:03:53;99089.06;;;14.40;40.79
22580;BME280;11456;47.030;15.396;2023-02-14T14:06:20;99093.47;;;14.32;40.99
22580;BME280;11456;47.030;15.396;2023-02-14T14:08:48;99085.78;;;14.27;41.17
22580;BME280;11456;47.030;15.396;2023-02-14T14:13:58;99079.81;;;14.72;40.35
22580;BME280;11456;47.030;15.396;2023-02-14T14:16:26;99085.19;;;14.33;40.49
22580;BME280;11456;47.030;15.396;2023-02-14T14:21:35;99097.66;;;13.86;41.78
22580;BME280;11456;47.030;15.396;2023-02-14T14:26:43;99095.13;;;14.04;41.41
22580;BME280;11456;47.030;15.396;2023-02-14T14:29:27;99091.81;;;13.91;41.25
22580;BME280;11456;47.030;15.396;2023-02-14T14:31:55;99088.59;;;14.16;41.04
22580;BME280;11456;47.030;15.396;2023-02-14T14:34:23;99093.09;;;13.87;41.85
22580;BME280;11456;47.030;15.396;2023-02-14T14:37:03;99093.25;;;13.55;42.19
22580;BME280;11456;47.030;15.396;2023-02-14T14:39:31;99096.72;;;13.67;42.16
22580;BME280;11456;47.030;15.396;2023-02-14T14:42:08;99096.22;;;13.52;42.82
22580;BME280;11456;47.030;15.396;2023-02-14T14:44:47;99093.50;;;13.01;44.21
22580;BME280;11456;47.030;15.396;2023-02-14T14:47:16;99091.84;;;13.09;44.10
22580;BME280;11456;47.030;15.396;2023-02-14T14:49:43;99090.84;;;12.90;44.60
22580;BME280;11456;47.030;15.396;2023-02-14T14:52:25;99094.44;;;12.90;44.71
22580;BME280;11456;47.030;15.396;2023-02-14T14:54:52;99093.44;;;12.91;45.19
22580;BME280;11456;47.030;15.396;2023-02-14T14:57:19;99090.47;;;13.15;44.32
22580;BME280;11456;47.030;15.396;2023-02-14T14:59:46;99094.31;;;12.92;44.39
22580;BME280;11456;47.030;15.396;2023-02-14T15:02:21;99089.81;;;13.02;44.10
22580;BME280;11456;47.030;15.396;2023-02-14T15:04:48;99093.31;;;12.40;45.65
22580;BME280;11456;47.030;15.396;2023-02-14T15:09:52;99097.41;;;12.55;45.64
22580;BME280;11456;47.030;15.396;2023-02-14T15:12:19;99094.34;;;12.28;46.12
22580;BME280;11456;47.030;15.396;2023-02-14T15:15:06;99094.00;;;12.21;46.74
22580;BME280;11456;47.030;15.396;2023-02-14T15:17:35;99095.19;;;11.63;48.21
22580;BME280;11456;47.030;15.396;2023-02-14T15:20:05;99099.22;;;11.91;47.23
22580;BME280;11456;47.030;15.396;2023-02-14T15:25:10;99099.09;;;11.59;48.14